sensor_id;sensor_type;location;lat;lon;timestamp;P1;durP1;ratioP1;P2;durP2;ratioP2
6438;SDS011;3252;52.540;13.290;2022-11-15T00:00:59;42.60;;;33.40;;
6438;SDS011;3252;52.540;13.290;2022-11-15T00:03:20;38.07;;;31.17;;
6438;SDS011;3252;52.540;13.290;2022-11-15T00:05:44;37.93;;;31.73;;
6438;SDS011;3252;52.540;13.290;2022-11-15T00:08:05;40.37;;;32.53;;
6438;SDS011;3252;52.540;13.290;2022-11-15T00:10:26;39.43;;;32.10;;
6438;SDS011;3252;52.540;13.290;2022-11-15T00:12:47;40.73;;;33.27;;
6438;SDS011;3252;52.540;13.290;2022-11-15T00:15:08;39.43;;;33.00;;
6438;SDS011;3252;52.540;13.290;2022-11-15T00:17:28;41.10;;;32.77;;
6438;SDS011;3252;52.540;13.290;2022-11-15T00:19:49;40.07;;;31.80;;
6438;SDS011;3252;52.540;13.290;2022-11-15T00:22:11;38.83;;;30.83;;
6438;SDS011;3252;52.540;13.290;2022-11-15T00:24:31;40.07;;;31.37;;
6438;SDS011;3252;52.540;13.290;2022-11-15T00:26:52;43.13;;;33.00;;
6438;SDS011;3252;52.540;13.290;2022-11-15T00:29:12;39.27;;;32.23;;
6438;SDS011;3252;52.540;13.290;2022-11-15T00:31:32;42.10;;;32.80;;
6438;SDS011;3252;52.540;13.290;2022-11-15T00:33:53;39.37;;;31.57;;
6438;SDS011;3252;52.540;13.290;2022-11-15T00:36:14;41.30;;;32.10;;
6438;SDS011;3252;52.540;13.290;2022-11-15T00:38:36;38.97;;;31.63;;
6438;SDS011;3252;52.540;13.290;2022-11-15T00:40:58;40.17;;;32.77;;
6438;SDS011;3252;52.540;13.290;2022-11-15T00:43:19;40.27;;;33.13;;
6438;SDS011;3252;52.540;13.290;2022-11-15T00:45:40;41.93;;;32.67;;
6438;SDS011;3252;52.540;13.290;2022-11-15T00:48:01;42.77;;;34.77;;
6438;SDS011;3252;52.540;13.290;2022-11-15T00:50:22;43.83;;;34.33;;
6438;SDS011;3252;52.540;13.290;2022-11-15T00:52:43;44.03;;;32.77;;
6438;SDS011;3252;52.540;13.290;2022-11-15T00:55:06;39.40;;;31.50;;
6438;SDS011;3252;52.540;13.290;2022-11-15T00:57:29;36.07;;;30.53;;
6438;SDS011;3252;52.540;13.290;2022-11-15T00:59:50;44.70;;;32.97;;
6438;SDS011;3252;52.540;13.290;2022-11-15T01:02:22;42.73;;;33.07;;
6438;SDS011;3252;52.540;13.290;2022-11-15T01:04:43;43.17;;;33.17;;
6438;SDS011;3252;52.540;13.290;2022-11-15T01:07:04;44.00;;;33.13;;
6438;SDS011;3252;52.540;13.290;2022-11-15T01:09:24;40.83;;;33.37;;
6438;SDS011;3252;52.540;13.290;2022-11-15T01:11:46;44.67;;;35.23;;
6438;SDS011;3252;52.540;13.290;2022-11-15T01:14:07;48.03;;;34.83;;
6438;SDS011;3252;52.540;13.290;2022-11-15T01:16:27;42.47;;;34.57;;
6438;SDS011;3252;52.540;13.290;2022-11-15T01:18:48;45.03;;;35.57;;
6438;SDS011;3252;52.540;13.290;2022-11-15T01:21:09;46.77;;;35.67;;
6438;SDS011;3252;52.540;13.290;2022-11-15T01:23:33;44.57;;;35.40;;
6438;SDS011;3252;52.540;13.290;2022-11-15T01:25:58;47.53;;;36.20;;
6438;SDS011;3252;52.540;13.290;2022-11-15T01:28:20;43.73;;;35.97;;
6438;SDS011;3252;52.540;13.290;2022-11-15T01:30:41;48.33;;;36.97;;
6438;SDS011;3252;52.540;13.290;2022-11-15T01:33:02;44.17;;;35.10;;
6438;SDS011;3252;52.540;13.290;2022-11-15T01:35:23;42.40;;;35.33;;
6438;SDS011;3252;52.540;13.290;2022-11-15T01:37:43;45.83;;;36.10;;
6438;SDS011;3252;52.540;13.290;2022-11-15T01:40:04;45.03;;;35.03;;
6438;SDS011;3252;52.540;13.290;2022-11-15T01:42:26;44.30;;;35.30;;
6438;SDS011;3252;52.540;13.290;2022-11-15T01:44:49;48.00;;;35.23;;
6438;SDS011;3252;52.540;13.290;2022-11-15T01:47:12;43.77;;;36.20;;
6438;SDS011;3252;52.540;13.290;2022-11-15T01:49:35;42.10;;;34.60;;
6438;SDS011;3252;52.540;13.290;2022-11-15T01:52:00;46.83;;;35.03;;
6438;SDS011;3252;52.540;13.290;2022-11-15T01:54:24;43.77;;;35.20;;
6438;SDS011;3252;52.540;13.290;2022-11-15T01:56:46;46.07;;;36.43;;
6438;SDS011;3252;52.540;13.290;2022-11-15T01:59:11;41.23;;;33.50;;
6438;SDS011;3252;52.540;13.290;2022-11-15T02:01:33;44.03;;;34.80;;
6438;SDS011;3252;52.540;13.290;2022-11-15T02:03:56;44.57;;;34.57;;
6438;SDS011;3252;52.540;13.290;2022-11-15T02:06:19;42.10;;;34.20;;
6438;SDS011;3252;52.540;13.290;2022-11-15T02:08:42;46.57;;;36.13;;
6438;SDS011;3252;52.540;13.290;2022-11-15T02:11:04;40.67;;;33.30;;
6438;SDS011;3252;52.540;13.290;2022-11-15T02:13:27;42.87;;;35.13;;
6438;SDS011;3252;52.540;13.290;2022-11-15T02:15:49;44.07;;;35.57;;
6438;SDS011;3252;52.540;13.290;2022-11-15T02:18:22;41.93;;;34.00;;
6438;SDS011;3252;52.540;13.290;2022-11-15T02:20:49;41.70;;;34.17;;
6438;SDS011;3252;52.540;13.290;2022-11-15T02:29:12;45.77;;;33.87;;
6438;SDS011;3252;52.540;13.290;2022-11-15T02:31:44;44.07;;;34.33;;
6438;SDS011;3252;52.540;13.290;2022-11-15T02:34:11;46.00;;;34.77;;
6438;SDS011;3252;52.540;13.290;2022-11-15T02:36:43;53.23;;;34.10;;
6438;SDS011;3252;52.540;13.290;2022-11-15T02:39:10;44.67;;;34.63;;
6438;SDS011;3252;52.540;13.290;2022-11-15T02:41:40;40.77;;;33.87;;
6438;SDS011;3252;52.540;13.290;2022-11-15T02:44:07;44.47;;;34.60;;
6438;SDS011;3252;52.540;13.290;2022-11-15T02:46:33;46.37;;;36.43;;
6438;SDS011;3252;52.540;13.290;2022-11-15T02:49:16;46.80;;;36.33;;
6438;SDS011;3252;52.540;13.290;2022-11-15T02:51:38;45.80;;;36.33;;
6438;SDS011;3252;52.540;13.290;2022-11-15T02:54:01;42.50;;;34.17;;
6438;SDS011;3252;52.540;13.290;2022-11-15T02:56:21;45.03;;;33.50;;
6438;SDS011;3252;52.540;13.290;2022-11-15T02:58:51;41.90;;;34.63;;
6438;SDS011;3252;52.540;13.290;2022-11-15T03:01:31;43.63;;;34.07;;
6438;SDS011;3252;52.540;13.290;2022-11-15T03:04:05;44.60;;;35.40;;
6438;SDS011;3252;52.540;13.290;2022-11-15T03:06:41;44.23;;;34.77;;
6438;SDS011;3252;52.540;13.290;2022-11-15T03:09:07;41.73;;;34.93;;
6438;SDS011;3252;52.540;13.290;2022-11-15T03:11:34;44.37;;;34.50;;
6438;SDS011;3252;52.540;13.290;2022-11-15T03:14:01;45.77;;;34.37;;
6438;SDS011;3252;52.540;13.290;2022-11-15T03:16:27;42.23;;;34.17;;
6438;SDS011;3252;52.540;13.290;2022-11-15T03:18:55;46.70;;;34.83;;
6438;SDS011;3252;52.540;13.290;2022-11-15T03:21:19;42.00;;;34.07;;
6438;SDS011;3252;52.540;13.290;2022-11-15T03:23:43;41.70;;;34.43;;
6438;SDS011;3252;52.540;13.290;2022-11-15T03:26:08;43.47;;;34.03;;
6438;SDS011;3252;52.540;13.290;2022-11-15T03:28:33;45.90;;;34.97;;
6438;SDS011;3252;52.540;13.290;2022-11-15T03:30:56;42.63;;;33.60;;
6438;SDS011;3252;52.540;13.290;2022-11-15T03:33:19;41.20;;;33.17;;
6438;SDS011;3252;52.540;13.290;2022-11-15T03:35:42;40.43;;;31.73;;
6438;SDS011;3252;52.540;13.290;2022-11-15T03:38:05;44.13;;;34.20;;
6438;SDS011;3252;52.540;13.290;2022-11-15T03:40:34;39.30;;;32.30;;
6438;SDS011;3252;52.540;13.290;2022-11-15T03:43:00;39.93;;;32.40;;
6438;SDS011;3252;52.540;13.290;2022-11-15T03:45:27;40.00;;;32.40;;
6438;SDS011;3252;52.540;13.290;2022-11-15T03:47:53;43.67;;;32.60;;
6438;SDS011;3252;52.540;13.290;2022-11-15T03:50:21;42.20;;;32.03;;
6438;SDS011;3252;52.540;13.290;2022-11-15T03:52:44;40.33;;;31.60;;
6438;SDS011;3252;52.540;13.290;2022-11-15T03:55:07;40.13;;;32.23;;
6438;SDS011;3252;52.540;13.290;2022-11-15T03:57:32;40.70;;;32.97;;
6438;SDS011;3252;52.540;13.290;2022-11-15T03:59:53;38.13;;;30.90;;
6438;SDS011;3252;52.540;13.290;2022-11-15T04:02:13;38.53;;;31.03;;
6438;SDS011;3252;52.540;13.290;2022-11-15T04:04:34;38.47;;;29.80;;
6438;SDS011;3252;52.540;13.290;2022-11-15T04:06:55;41.27;;;32.53;;
6438;SDS011;3252;52.540;13.290;2022-11-15T04:09:15;39.60;;;32.27;;
6438;SDS011;3252;52.540;13.290;2022-11-15T04:11:36;40.47;;;32.23;;
6438;SDS011;3252;52.540;13.290;2022-11-15T04:13:57;37.20;;;30.80;;
6438;SDS011;3252;52.540;13.290;2022-11-15T04:16:18;41.07;;;31.20;;
6438;SDS011;3252;52.540;13.290;2022-11-15T04:18:38;37.83;;;30.50;;
6438;SDS011;3252;52.540;13.290;2022-11-15T04:20:59;37.63;;;30.37;;
6438;SDS011;3252;52.540;13.290;2022-11-15T04:23:38;41.30;;;31.13;;
6438;SDS011;3252;52.540;13.290;2022-11-15T04:26:21;40.00;;;31.67;;
6438;SDS011;3252;52.540;13.290;2022-11-15T04:28:43;37.40;;;30.77;;
6438;SDS011;3252;52.540;13.290;2022-11-15T04:31:19;37.60;;;31.37;;
6438;SDS011;3252;52.540;13.290;2022-11-15T04:33:40;41.17;;;32.43;;
6438;SDS011;3252;52.540;13.290;2022-11-15T04:36:01;39.67;;;30.57;;
6438;SDS011;3252;52.540;13.290;2022-11-15T04:38:44;38.43;;;30.90;;
6438;SDS011;3252;52.540;13.290;2022-11-15T04:41:05;42.03;;;32.27;;
6438;SDS011;3252;52.540;13.290;2022-11-15T04:43:26;36.20;;;30.83;;
6438;SDS011;3252;52.540;13.290;2022-11-15T04:45:46;40.63;;;30.63;;
6438;SDS011;3252;52.540;13.290;2022-11-15T04:48:08;40.60;;;31.70;;
6438;SDS011;3252;52.540;13.290;2022-11-15T04:50:29;41.63;;;32.47;;
6438;SDS011;3252;52.540;13.290;2022-11-15T04:52:50;37.53;;;29.93;;
6438;SDS011;3252;52.540;13.290;2022-11-15T04:55:13;40.60;;;31.33;;
6438;SDS011;3252;52.540;13.290;2022-11-15T04:57:33;37.63;;;30.10;;
6438;SDS011;3252;52.540;13.290;2022-11-15T04:59:55;38.80;;;30.63;;
6438;SDS011;3252;52.540;13.290;2022-11-15T05:02:16;38.50;;;30.67;;
6438;SDS011;3252;52.540;13.290;2022-11-15T05:04:38;39.40;;;30.43;;
6438;SDS011;3252;52.540;13.290;2022-11-15T05:06:58;41.07;;;32.90;;
6438;SDS011;3252;52.540;13.290;2022-11-15T05:09:19;46.60;;;31.27;;
6438;SDS011;3252;52.540;13.290;2022-11-15T05:11:40;41.47;;;33.70;;
6438;SDS011;3252;52.540;13.290;2022-11-15T05:14:01;43.90;;;32.30;;
6438;SDS011;3252;52.540;13.290;2022-11-15T05:16:22;40.43;;;32.37;;
6438;SDS011;3252;52.540;13.290;2022-11-15T05:18:43;44.00;;;34.40;;
6438;SDS011;3252;52.540;13.290;2022-11-15T05:21:07;41.80;;;31.57;;
6438;SDS011;3252;52.540;13.290;2022-11-15T05:23:28;43.80;;;32.60;;
6438;SDS011;3252;52.540;13.290;2022-11-15T05:25:49;46.63;;;31.80;;
6438;SDS011;3252;52.540;13.290;2022-11-15T05:28:09;41.67;;;30.57;;
6438;SDS011;3252;52.540;13.290;2022-11-15T05:30:30;43.13;;;31.57;;
6438;SDS011;3252;52.540;13.290;2022-11-15T05:32:50;42.33;;;31.83;;
6438;SDS011;3252;52.540;13.290;2022-11-15T05:35:12;42.23;;;31.27;;
6438;SDS011;3252;52.540;13.290;2022-11-15T05:37:39;42.13;;;31.70;;
6438;SDS011;3252;52.540;13.290;2022-11-15T05:40:00;39.67;;;30.03;;
6438;SDS011;3252;52.540;13.290;2022-11-15T05:42:21;39.47;;;32.47;;
6438;SDS011;3252;52.540;13.290;2022-11-15T05:44:43;43.20;;;33.20;;
6438;SDS011;3252;52.540;13.290;2022-11-15T05:47:08;42.87;;;31.17;;
6438;SDS011;3252;52.540;13.290;2022-11-15T05:49:31;42.07;;;31.40;;
6438;SDS011;3252;52.540;13.290;2022-11-15T05:51:54;41.27;;;32.87;;
6438;SDS011;3252;52.540;13.290;2022-11-15T05:54:18;44.43;;;34.70;;
6438;SDS011;3252;52.540;13.290;2022-11-15T05:56:41;39.70;;;31.27;;
6438;SDS011;3252;52.540;13.290;2022-11-15T05:59:02;41.43;;;31.47;;
6438;SDS011;3252;52.540;13.290;2022-11-15T06:01:24;38.67;;;30.57;;
6438;SDS011;3252;52.540;13.290;2022-11-15T06:03:46;43.50;;;32.27;;
6438;SDS011;3252;52.540;13.290;2022-11-15T06:06:07;40.50;;;31.47;;
6438;SDS011;3252;52.540;13.290;2022-11-15T06:08:27;43.50;;;31.50;;
6438;SDS011;3252;52.540;13.290;2022-11-15T06:10:49;41.03;;;31.37;;
6438;SDS011;3252;52.540;13.290;2022-11-15T06:13:10;44.33;;;32.63;;
6438;SDS011;3252;52.540;13.290;2022-11-15T06:15:31;40.87;;;29.73;;
6438;SDS011;3252;52.540;13.290;2022-11-15T06:17:53;39.40;;;31.47;;
6438;SDS011;3252;52.540;13.290;2022-11-15T06:20:17;41.43;;;30.80;;
6438;SDS011;3252;52.540;13.290;2022-11-15T06:22:38;39.67;;;30.90;;
6438;SDS011;3252;52.540;13.290;2022-11-15T06:24:59;42.33;;;32.33;;
6438;SDS011;3252;52.540;13.290;2022-11-15T06:27:21;40.97;;;32.23;;
6438;SDS011;3252;52.540;13.290;2022-11-15T06:29:42;37.33;;;30.17;;
6438;SDS011;3252;52.540;13.290;2022-11-15T06:32:02;39.53;;;30.93;;
6438;SDS011;3252;52.540;13.290;2022-11-15T06:34:23;48.23;;;33.83;;
6438;SDS011;3252;52.540;13.290;2022-11-15T06:36:44;38.37;;;30.53;;
6438;SDS011;3252;52.540;13.290;2022-11-15T06:39:05;40.00;;;31.60;;
6438;SDS011;3252;52.540;13.290;2022-11-15T06:41:25;37.20;;;30.20;;
6438;SDS011;3252;52.540;13.290;2022-11-15T06:43:47;40.97;;;29.87;;
6438;SDS011;3252;52.540;13.290;2022-11-15T06:46:08;45.23;;;31.53;;
6438;SDS011;3252;52.540;13.290;2022-11-15T06:48:29;42.03;;;32.20;;
6438;SDS011;3252;52.540;13.290;2022-11-15T06:50:51;40.03;;;31.37;;
6438;SDS011;3252;52.540;13.290;2022-11-15T06:53:12;41.50;;;30.83;;
6438;SDS011;3252;52.540;13.290;2022-11-15T06:55:33;45.33;;;31.97;;
6438;SDS011;3252;52.540;13.290;2022-11-15T06:57:53;43.27;;;31.13;;
6438;SDS011;3252;52.540;13.290;2022-11-15T07:00:16;44.10;;;32.33;;
6438;SDS011;3252;52.540;13.290;2022-11-15T07:02:37;43.43;;;31.37;;
6438;SDS011;3252;52.540;13.290;2022-11-15T07:04:58;45.27;;;31.37;;
6438;SDS011;3252;52.540;13.290;2022-11-15T07:07:19;40.13;;;30.87;;
6438;SDS011;3252;52.540;13.290;2022-11-15T07:09:39;44.43;;;31.83;;
6438;SDS011;3252;52.540;13.290;2022-11-15T07:12:00;42.60;;;31.17;;
6438;SDS011;3252;52.540;13.290;2022-11-15T07:14:21;43.50;;;30.77;;
6438;SDS011;3252;52.540;13.290;2022-11-15T07:16:42;42.33;;;31.07;;
6438;SDS011;3252;52.540;13.290;2022-11-15T07:19:03;42.57;;;33.13;;
6438;SDS011;3252;52.540;13.290;2022-11-15T07:21:24;44.53;;;32.10;;
6438;SDS011;3252;52.540;13.290;2022-11-15T07:23:44;43.47;;;31.30;;
6438;SDS011;3252;52.540;13.290;2022-11-15T07:26:05;45.57;;;32.00;;
6438;SDS011;3252;52.540;13.290;2022-11-15T07:28:26;41.73;;;32.73;;
6438;SDS011;3252;52.540;13.290;2022-11-15T07:30:47;41.03;;;31.17;;
6438;SDS011;3252;52.540;13.290;2022-11-15T07:33:09;41.27;;;30.30;;
6438;SDS011;3252;52.540;13.290;2022-11-15T07:35:30;43.60;;;30.87;;
6438;SDS011;3252;52.540;13.290;2022-11-15T07:37:54;42.17;;;29.37;;
6438;SDS011;3252;52.540;13.290;2022-11-15T07:40:17;37.30;;;29.07;;
6438;SDS011;3252;52.540;13.290;2022-11-15T07:42:38;36.93;;;28.47;;
6438;SDS011;3252;52.540;13.290;2022-11-15T07:45:14;38.80;;;29.67;;
6438;SDS011;3252;52.540;13.290;2022-11-15T07:47:35;37.80;;;28.73;;
6438;SDS011;3252;52.540;13.290;2022-11-15T07:49:57;40.03;;;29.63;;
6438;SDS011;3252;52.540;13.290;2022-11-15T07:52:18;34.83;;;27.87;;
6438;SDS011;3252;52.540;13.290;2022-11-15T07:54:39;39.20;;;27.47;;
6438;SDS011;3252;52.540;13.290;2022-11-15T07:57:00;53.97;;;36.80;;
6438;SDS011;3252;52.540;13.290;2022-11-15T07:59:21;45.97;;;30.07;;
6438;SDS011;3252;52.540;13.290;2022-11-15T08:01:42;33.37;;;25.77;;
6438;SDS011;3252;52.540;13.290;2022-11-15T08:04:02;31.53;;;24.70;;
6438;SDS011;3252;52.540;13.290;2022-11-15T08:06:24;28.27;;;24.40;;
6438;SDS011;3252;52.540;13.290;2022-11-15T08:08:46;31.50;;;24.33;;
6438;SDS011;3252;52.540;13.290;2022-11-15T08:11:07;30.10;;;23.63;;
6438;SDS011;3252;52.540;13.290;2022-11-15T08:13:27;28.40;;;24.40;;
6438;SDS011;3252;52.540;13.290;2022-11-15T08:15:48;28.67;;;23.30;;
6438;SDS011;3252;52.540;13.290;2022-11-15T08:18:09;28.23;;;23.23;;
6438;SDS011;3252;52.540;13.290;2022-11-15T08:20:31;28.97;;;22.50;;
6438;SDS011;3252;52.540;13.290;2022-11-15T08:22:54;31.67;;;21.93;;
6438;SDS011;3252;52.540;13.290;2022-11-15T08:25:14;28.77;;;22.40;;
6438;SDS011;3252;52.540;13.290;2022-11-15T08:27:36;28.20;;;21.63;;
6438;SDS011;3252;52.540;13.290;2022-11-15T08:29:57;25.63;;;21.80;;
6438;SDS011;3252;52.540;13.290;2022-11-15T08:32:17;27.43;;;21.37;;
6438;SDS011;3252;52.540;13.290;2022-11-15T08:34:38;29.03;;;21.53;;
6438;SDS011;3252;52.540;13.290;2022-11-15T08:36:59;30.13;;;20.73;;
6438;SDS011;3252;52.540;13.290;2022-11-15T08:39:21;36.97;;;22.70;;
6438;SDS011;3252;52.540;13.290;2022-11-15T08:41:41;28.37;;;21.00;;
6438;SDS011;3252;52.540;13.290;2022-11-15T08:44:03;26.47;;;21.77;;
6438;SDS011;3252;52.540;13.290;2022-11-15T08:46:24;26.53;;;21.80;;
6438;SDS011;3252;52.540;13.290;2022-11-15T08:48:45;25.97;;;20.67;;
6438;SDS011;3252;52.540;13.290;2022-11-15T08:51:05;24.93;;;20.27;;
6438;SDS011;3252;52.540;13.290;2022-11-15T08:53:26;29.17;;;20.67;;
6438;SDS011;3252;52.540;13.290;2022-11-15T08:55:48;28.70;;;21.27;;
6438;SDS011;3252;52.540;13.290;2022-11-15T08:58:09;29.40;;;22.00;;
6438;SDS011;3252;52.540;13.290;2022-11-15T09:00:30;34.07;;;22.87;;
6438;SDS011;3252;52.540;13.290;2022-11-15T09:02:51;29.70;;;22.87;;
6438;SDS011;3252;52.540;13.290;2022-11-15T09:05:11;26.30;;;20.70;;
6438;SDS011;3252;52.540;13.290;2022-11-15T09:07:32;29.70;;;22.53;;
6438;SDS011;3252;52.540;13.290;2022-11-15T09:09:52;27.03;;;21.00;;
6438;SDS011;3252;52.540;13.290;2022-11-15T09:12:14;27.87;;;21.20;;
6438;SDS011;3252;52.540;13.290;2022-11-15T09:14:35;28.63;;;20.67;;
6438;SDS011;3252;52.540;13.290;2022-11-15T09:16:56;26.87;;;20.67;;
6438;SDS011;3252;52.540;13.290;2022-11-15T09:19:17;27.33;;;21.20;;
6438;SDS011;3252;52.540;13.290;2022-11-15T09:21:38;27.10;;;20.33;;
6438;SDS011;3252;52.540;13.290;2022-11-15T09:23:58;25.47;;;21.33;;
6438;SDS011;3252;52.540;13.290;2022-11-15T09:26:19;23.43;;;20.80;;
6438;SDS011;3252;52.540;13.290;2022-11-15T09:28:41;25.73;;;19.53;;
6438;SDS011;3252;52.540;13.290;2022-11-15T09:31:03;25.37;;;20.60;;
6438;SDS011;3252;52.540;13.290;2022-11-15T09:33:26;28.13;;;20.77;;
6438;SDS011;3252;52.540;13.290;2022-11-15T09:35:47;26.40;;;19.87;;
6438;SDS011;3252;52.540;13.290;2022-11-15T09:38:08;24.27;;;19.77;;
6438;SDS011;3252;52.540;13.290;2022-11-15T09:40:29;24.43;;;19.67;;
6438;SDS011;3252;52.540;13.290;2022-11-15T09:42:54;24.50;;;19.10;;
6438;SDS011;3252;52.540;13.290;2022-11-15T09:45:27;25.07;;;20.20;;
6438;SDS011;3252;52.540;13.290;2022-11-15T09:48:25;30.27;;;19.57;;
6438;SDS011;3252;52.540;13.290;2022-11-15T09:50:54;24.93;;;19.60;;
6438;SDS011;3252;52.540;13.290;2022-11-15T09:53:00;25.97;;;18.00;;
6438;SDS011;3252;52.540;13.290;2022-11-15T09:55:02;23.77;;;18.17;;
6438;SDS011;3252;52.540;13.290;2022-11-15T09:57:11;24.53;;;18.00;;
6438;SDS011;3252;52.540;13.290;2022-11-15T09:59:18;27.63;;;18.47;;
6438;SDS011;3252;52.540;13.290;2022-11-15T10:01:33;26.60;;;19.03;;
6438;SDS011;3252;52.540;13.290;2022-11-15T10:03:41;24.47;;;17.63;;
6438;SDS011;3252;52.540;13.290;2022-11-15T10:05:46;21.20;;;17.27;;
6438;SDS011;3252;52.540;13.290;2022-11-15T10:07:50;26.57;;;18.20;;
6438;SDS011;3252;52.540;13.290;2022-11-15T10:10:01;22.67;;;19.27;;
6438;SDS011;3252;52.540;13.290;2022-11-15T10:12:09;28.30;;;22.70;;
6438;SDS011;3252;52.540;13.290;2022-11-15T10:14:15;30.67;;;21.43;;
6438;SDS011;3252;52.540;13.290;2022-11-15T10:16:30;25.27;;;19.43;;
6438;SDS011;3252;52.540;13.290;2022-11-15T10:18:52;20.57;;;17.77;;
6438;SDS011;3252;52.540;13.290;2022-11-15T10:21:02;26.00;;;16.93;;
6438;SDS011;3252;52.540;13.290;2022-11-15T10:23:15;20.23;;;16.43;;
6438;SDS011;3252;52.540;13.290;2022-11-15T10:25:21;23.20;;;16.57;;
6438;SDS011;3252;52.540;13.290;2022-11-15T10:27:25;25.73;;;16.77;;
6438;SDS011;3252;52.540;13.290;2022-11-15T10:29:27;20.70;;;16.77;;
6438;SDS011;3252;52.540;13.290;2022-11-15T10:31:29;21.93;;;16.17;;
6438;SDS011;3252;52.540;13.290;2022-11-15T10:33:33;19.50;;;16.53;;
6438;SDS011;3252;52.540;13.290;2022-11-15T10:35:37;20.87;;;15.67;;
6438;SDS011;3252;52.540;13.290;2022-11-15T10:37:39;21.80;;;16.13;;
6438;SDS011;3252;52.540;13.290;2022-11-15T10:39:41;21.13;;;17.00;;
6438;SDS011;3252;52.540;13.290;2022-11-15T10:41:43;22.57;;;16.07;;
6438;SDS011;3252;52.540;13.290;2022-11-15T10:44:00;20.50;;;14.30;;
6438;SDS011;3252;52.540;13.290;2022-11-15T10:46:19;20.70;;;15.13;;
6438;SDS011;3252;52.540;13.290;2022-11-15T10:48:23;18.50;;;15.40;;
6438;SDS011;3252;52.540;13.290;2022-11-15T10:50:28;18.93;;;15.53;;
6438;SDS011;3252;52.540;13.290;2022-11-15T10:52:33;23.33;;;16.13;;
6438;SDS011;3252;52.540;13.290;2022-11-15T10:54:37;21.90;;;15.73;;
6438;SDS011;3252;52.540;13.290;2022-11-15T10:56:43;21.57;;;15.63;;
6438;SDS011;3252;52.540;13.290;2022-11-15T10:58:51;21.30;;;15.13;;
6438;SDS011;3252;52.540;13.290;2022-11-15T11:00:55;23.33;;;17.07;;
6438;SDS011;3252;52.540;13.290;2022-11-15T11:03:26;19.97;;;15.33;;
6438;SDS011;3252;52.540;13.290;2022-11-15T11:05:33;16.60;;;14.23;;
6438;SDS011;3252;52.540;13.290;2022-11-15T11:07:37;21.23;;;15.83;;
6438;SDS011;3252;52.540;13.290;2022-11-15T11:09:40;20.53;;;15.77;;
6438;SDS011;3252;52.540;13.290;2022-11-15T11:11:44;26.23;;;16.00;;
6438;SDS011;3252;52.540;13.290;2022-11-15T11:13:48;39.70;;;17.67;;
6438;SDS011;3252;52.540;13.290;2022-11-15T11:15:52;32.63;;;15.23;;
6438;SDS011;3252;52.540;13.290;2022-11-15T11:18:01;25.47;;;15.70;;
6438;SDS011;3252;52.540;13.290;2022-11-15T11:20:10;21.37;;;15.10;;
6438;SDS011;3252;52.540;13.290;2022-11-15T11:22:25;21.23;;;15.87;;
6438;SDS011;3252;52.540;13.290;2022-11-15T11:24:34;19.27;;;15.53;;
6438;SDS011;3252;52.540;13.290;2022-11-15T11:26:42;20.03;;;14.90;;
6438;SDS011;3252;52.540;13.290;2022-11-15T11:28:49;19.70;;;15.83;;
6438;SDS011;3252;52.540;13.290;2022-11-15T11:31:05;18.97;;;15.47;;
6438;SDS011;3252;52.540;13.290;2022-11-15T11:33:16;20.97;;;15.47;;
6438;SDS011;3252;52.540;13.290;2022-11-15T11:35:23;23.27;;;15.60;;
6438;SDS011;3252;52.540;13.290;2022-11-15T11:37:32;22.50;;;15.00;;
6438;SDS011;3252;52.540;13.290;2022-11-15T11:39:43;21.83;;;14.53;;
6438;SDS011;3252;52.540;13.290;2022-11-15T11:42:00;21.47;;;16.37;;
6438;SDS011;3252;52.540;13.290;2022-11-15T11:44:15;20.10;;;15.30;;
6438;SDS011;3252;52.540;13.290;2022-11-15T11:46:30;19.13;;;14.63;;
6438;SDS011;3252;52.540;13.290;2022-11-15T11:48:42;19.47;;;15.03;;
6438;SDS011;3252;52.540;13.290;2022-11-15T11:50:46;21.83;;;16.90;;
6438;SDS011;3252;52.540;13.290;2022-11-15T11:52:54;17.87;;;15.50;;
6438;SDS011;3252;52.540;13.290;2022-11-15T11:55:02;18.80;;;15.37;;
6438;SDS011;3252;52.540;13.290;2022-11-15T11:57:16;22.70;;;14.73;;
6438;SDS011;3252;52.540;13.290;2022-11-15T11:59:25;18.30;;;15.30;;
6438;SDS011;3252;52.540;13.290;2022-11-15T12:01:36;20.43;;;14.97;;
6438;SDS011;3252;52.540;13.290;2022-11-15T12:03:43;26.27;;;15.13;;
6438;SDS011;3252;52.540;13.290;2022-11-15T12:05:49;19.87;;;15.77;;
6438;SDS011;3252;52.540;13.290;2022-11-15T12:07:56;21.13;;;15.23;;
6438;SDS011;3252;52.540;13.290;2022-11-15T12:10:07;26.50;;;15.53;;
6438;SDS011;3252;52.540;13.290;2022-11-15T12:12:18;22.77;;;15.67;;
6438;SDS011;3252;52.540;13.290;2022-11-15T12:14:30;21.67;;;15.60;;
6438;SDS011;3252;52.540;13.290;2022-11-15T12:16:36;22.23;;;16.07;;
6438;SDS011;3252;52.540;13.290;2022-11-15T12:18:40;21.43;;;15.70;;
6438;SDS011;3252;52.540;13.290;2022-11-15T12:20:49;20.53;;;15.63;;
6438;SDS011;3252;52.540;13.290;2022-11-15T12:22:58;19.97;;;15.13;;
6438;SDS011;3252;52.540;13.290;2022-11-15T12:25:07;21.27;;;16.20;;
6438;SDS011;3252;52.540;13.290;2022-11-15T12:27:17;20.40;;;15.07;;
6438;SDS011;3252;52.540;13.290;2022-11-15T12:29:25;23.17;;;15.83;;
6438;SDS011;3252;52.540;13.290;2022-11-15T12:31:35;21.10;;;15.30;;
6438;SDS011;3252;52.540;13.290;2022-11-15T12:33:40;17.40;;;14.30;;
6438;SDS011;3252;52.540;13.290;2022-11-15T12:35:44;20.60;;;13.30;;
6438;SDS011;3252;52.540;13.290;2022-11-15T12:38:01;16.17;;;13.40;;
6438;SDS011;3252;52.540;13.290;2022-11-15T12:40:14;19.60;;;13.23;;
6438;SDS011;3252;52.540;13.290;2022-11-15T12:42:34;17.83;;;12.90;;
6438;SDS011;3252;52.540;13.290;2022-11-15T12:44:56;21.00;;;13.20;;
6438;SDS011;3252;52.540;13.290;2022-11-15T12:47:04;16.67;;;12.33;;
6438;SDS011;3252;52.540;13.290;2022-11-15T12:56:44;16.13;;;12.17;;
6438;SDS011;3252;52.540;13.290;2022-11-15T12:58:47;15.77;;;12.83;;
6438;SDS011;3252;52.540;13.290;2022-11-15T13:00:50;14.43;;;12.30;;
6438;SDS011;3252;52.540;13.290;2022-11-15T13:03:12;15.10;;;12.20;;
6438;SDS011;3252;52.540;13.290;2022-11-15T13:07:59;15.43;;;12.17;;
6438;SDS011;3252;52.540;13.290;2022-11-15T13:10:02;18.43;;;12.93;;
6438;SDS011;3252;52.540;13.290;2022-11-15T13:12:49;18.30;;;12.67;;
6438;SDS011;3252;52.540;13.290;2022-11-15T13:14:56;18.87;;;14.33;;
6438;SDS011;3252;52.540;13.290;2022-11-15T13:17:00;20.97;;;15.07;;
6438;SDS011;3252;52.540;13.290;2022-11-15T13:19:02;18.70;;;14.03;;
6438;SDS011;3252;52.540;13.290;2022-11-15T13:21:19;18.67;;;15.17;;
6438;SDS011;3252;52.540;13.290;2022-11-15T13:23:40;21.27;;;14.93;;
6438;SDS011;3252;52.540;13.290;2022-11-15T13:25:55;25.50;;;14.77;;
6438;SDS011;3252;52.540;13.290;2022-11-15T13:28:19;19.97;;;14.13;;
6438;SDS011;3252;52.540;13.290;2022-11-15T13:30:27;19.27;;;13.63;;
6438;SDS011;3252;52.540;13.290;2022-11-15T13:32:30;16.10;;;14.00;;
6438;SDS011;3252;52.540;13.290;2022-11-15T13:34:33;19.67;;;13.80;;
6438;SDS011;3252;52.540;13.290;2022-11-15T13:36:36;18.83;;;14.30;;
6438;SDS011;3252;52.540;13.290;2022-11-15T13:38:39;20.07;;;13.60;;
6438;SDS011;3252;52.540;13.290;2022-11-15T13:40:43;19.27;;;13.87;;
6438;SDS011;3252;52.540;13.290;2022-11-15T13:42:47;21.27;;;13.67;;
6438;SDS011;3252;52.540;13.290;2022-11-15T13:44:56;16.57;;;14.13;;
6438;SDS011;3252;52.540;13.290;2022-11-15T13:47:01;17.50;;;13.10;;
6438;SDS011;3252;52.540;13.290;2022-11-15T13:49:09;19.87;;;14.13;;
6438;SDS011;3252;52.540;13.290;2022-11-15T13:51:15;19.83;;;13.50;;
6438;SDS011;3252;52.540;13.290;2022-11-15T13:53:21;17.10;;;13.67;;
6438;SDS011;3252;52.540;13.290;2022-11-15T13:55:23;16.67;;;13.60;;
6438;SDS011;3252;52.540;13.290;2022-11-15T13:57:27;18.17;;;13.47;;